createdAt,value
2022-11-09T00:14:47.052Z,1.69
2022-11-09T00:29:49.265Z,1.57
2022-11-09T00:44:51.596Z,1.38
2022-11-09T00:59:53.843Z,1.4
2022-11-09T01:14:56.229Z,1.63
2022-11-09T01:29:58.555Z,1.61
2022-11-09T01:45:01.090Z,1.67
2022-11-09T02:00:03.616Z,1.97
2022-11-09T02:15:06.365Z,1.86
2022-11-09T02:30:08.971Z,1.89
2022-11-09T02:45:11.778Z,1.8
2022-11-09T03:00:14.377Z,1.63
2022-11-09T03:15:16.766Z,1.75
2022-11-09T03:30:19.344Z,2.1
2022-11-09T03:45:21.743Z,2.11
2022-11-09T04:00:24.474Z,1.57
2022-11-09T04:15:26.934Z,2.09
2022-11-09T04:30:29.606Z,1.78
2022-11-09T04:45:32.124Z,2.12
2022-11-09T05:00:34.913Z,1.59
2022-11-09T05:15:37.907Z,1.89
2022-11-09T05:30:40.482Z,2.16
2022-11-09T05:45:43.935Z,2.04
2022-11-09T06:00:46.593Z,1.89
2022-11-09T06:15:49.068Z,1.29
2022-11-09T06:30:51.518Z,1.76
2022-11-09T06:45:53.929Z,1.24
2022-11-09T07:00:56.323Z,1.17
2022-11-09T07:15:58.695Z,0.61
2022-11-09T07:31:01.064Z,1.28
2022-11-09T07:46:03.359Z,1.27
2022-11-09T08:01:05.809Z,1.56
2022-11-09T08:16:08.223Z,1.84
2022-11-09T08:31:10.827Z,0.78
2022-11-09T08:46:13.301Z,0.06
2022-11-09T09:01:17.310Z,0.48
2022-11-09T09:16:19.902Z,-0.02
2022-11-09T09:31:22.314Z,0.31
2022-11-09T09:46:24.748Z,0.53
2022-11-09T10:01:27.267Z,0.43
2022-11-09T10:16:29.660Z,0.82
2022-11-09T10:31:31.867Z,0.17
2022-11-09T10:46:34.163Z,0.65
2022-11-09T11:01:36.591Z,0.07
2022-11-09T11:16:38.870Z,0.36
2022-11-09T11:31:41.310Z,0.52
2022-11-09T11:46:43.741Z,-0.02
2022-11-09T12:01:46.005Z,0.49
2022-11-09T12:16:48.356Z,-0.09
2022-11-09T12:31:50.715Z,0.55
2022-11-09T12:46:53.018Z,0.43
2022-11-09T13:01:55.345Z,0.32
2022-11-09T13:16:57.663Z,0.79
2022-11-09T13:32:00.099Z,0.13
2022-11-09T13:47:02.300Z,0.39
2022-11-09T14:02:04.813Z,0.38
2022-11-09T14:17:07.264Z,0.34
2022-11-09T14:32:09.494Z,0.31
2022-11-09T14:47:11.745Z,0.23
2022-11-09T15:02:14.369Z,0.36
2022-11-09T15:17:17.012Z,-0.55
2022-11-09T15:32:19.340Z,0.35
2022-11-09T15:47:21.676Z,0
2022-11-09T16:02:24.540Z,-0.33
2022-11-09T16:17:26.810Z,-0.32
2022-11-09T16:32:29.148Z,0.26
2022-11-09T16:47:31.707Z,0.32
2022-11-09T17:02:34.192Z,0.42
2022-11-09T17:17:36.523Z,0.38
2022-11-09T17:32:38.702Z,0.54
2022-11-09T17:47:40.849Z,0.1
2022-11-09T18:02:43.161Z,0.48
2022-11-09T18:17:45.428Z,0.54
2022-11-09T18:32:47.660Z,0.71
2022-11-09T18:47:49.877Z,-0.06
2022-11-09T19:02:52.103Z,0.61
2022-11-09T19:17:54.450Z,1.37
2022-11-09T19:32:56.702Z,2.28
2022-11-09T19:47:58.967Z,2.51
2022-11-09T20:03:01.194Z,3.25
2022-11-09T20:18:03.503Z,3.34
2022-11-09T20:33:06.318Z,3.69
2022-11-09T20:48:24.889Z,3.1
2022-11-09T21:03:49.248Z,3.38
2022-11-09T21:18:51.632Z,3.41
2022-11-09T21:33:53.931Z,3.12
2022-11-09T21:48:56.140Z,3.64
2022-11-09T22:03:58.415Z,3.3
2022-11-09T22:19:00.874Z,2.82
2022-11-09T22:34:03.139Z,2.43
2022-11-09T23:19:27.816Z,2.07
2022-11-09T23:34:30.243Z,1.98
2022-11-09T23:49:32.717Z,2.37
